Time;durP1;ratioP1;P1;durP2;ratioP2;P2;SDS_P1;SDS_P2;PMS_P1;PMS_P2;Temp;Humidity;BMP_temperature;BMP_pressure;BME280_temperature;BME280_humidity;BME280_pressure;Samples;Min_cycle;Max_cycle;Signal;HPM_P1;HPM_P2
2024/03/17 00:00:39;;;;;;;2.47;2.28;;;;;;;;;;5034190;28;20060;-64
2024/03/17 00:03:05;;;;;;;1.83;1.73;;;;;;;;;;5033557;28;20104;-64
2024/03/17 00:05:30;;;;;;;1.85;1.75;;;;;;;;;;5033832;28;20104;-64
2024/03/17 00:07:56;;;;;;;2.25;2.15;;;;;;;;;;5033581;28;20025;-64
2024/03/17 00:10:21;;;;;;;3.40;2.50;;;;;;;;;;5033514;28;20021;-64
2024/03/17 00:12:47;;;;;;;2.55;2.00;;;;;;;;;;5034051;28;20068;-64
2024/03/17 00:15:12;;;;;;;1.95;1.80;;;;;;;;;;5033479;28;20017;-64
2024/03/17 00:17:38;;;;;;;1.95;1.85;;;;;;;;;;5033272;28;20236;-64
2024/03/17 00:20:08;;;;;;;2.55;2.00;;;;;;;;;;5039812;28;20402;-64
2024/03/17 00:22:39;;;;;;;1.48;1.35;;;;;;;;;;5036401;28;20022;-64
2024/03/17 00:25:04;;;;;;;;;;;;;;;;;;5053832;28;20039;-64
2024/03/17 00:27:30;;;;;;;3.38;2.10;;;;;;;;;;5036052;28;19909;-64
2024/03/17 00:29:55;;;;;;;1.80;1.70;;;;;;;;;;5035678;28;20131;-64
2024/03/17 00:32:22;;;;;;;1.88;1.63;;;;;;;;;;5053237;28;20033;-64
2024/03/17 00:34:47;;;;;;;3.08;1.98;;;;;;;;;;5076754;22;20049;-63
2024/03/17 00:37:17;;;;;;;2.30;1.73;;;;;;;;;;5072905;28;20055;-64
2024/03/17 00:39:44;;;;;;;2.40;1.73;;;;;;;;;;5071921;28;20036;-64
2024/03/17 00:42:09;;;;;;;2.28;2.08;;;;;;;;;;5073452;28;20039;-64
2024/03/17 00:44:35;;;;;;;2.55;2.35;;;;;;;;;;5073054;28;20036;-64
2024/03/17 00:47:00;;;;;;;3.63;2.47;;;;;;;;;;5072214;28;20098;-64
2024/03/17 00:49:26;;;;;;;2.20;1.92;;;;;;;;;;5073094;28;20056;-64
2024/03/17 00:51:51;;;;;;;3.80;2.40;;;;;;;;;;5072170;28;20048;-64
2024/03/17 00:54:18;;;;;;;5.05;2.20;;;;;;;;;;5076800;28;20075;-64
2024/03/17 00:56:43;;;;;;;2.33;2.00;;;;;;;;;;5075450;28;20394;-64
2024/03/17 00:59:09;;;;;;;4.63;2.42;;;;;;;;;;5076624;28;20023;-64
2024/03/17 01:01:35;;;;;;;3.38;2.05;;;;;;;;;;5076907;28;20024;-64
2024/03/17 01:04:00;;;;;;;2.17;1.95;;;;;;;;;;5076902;28;20035;-64
2024/03/17 01:06:26;;;;;;;4.22;2.00;;;;;;;;;;5076552;28;20072;-64
2024/03/17 01:08:52;;;;;;;3.13;1.95;;;;;;;;;;5076441;28;20090;-64
2024/03/17 01:11:18;;;;;;;2.15;1.88;;;;;;;;;;5075572;28;20108;-64
2024/03/17 01:13:44;;;;;;;2.47;1.83;;;;;;;;;;5076680;28;20029;-64
2024/03/17 01:16:10;;;;;;;4.30;2.58;;;;;;;;;;5076404;28;20486;-64
2024/03/17 01:18:37;;;;;;;3.75;2.25;;;;;;;;;;5075087;28;20111;-64
2024/03/17 01:21:02;;;;;;;3.35;2.10;;;;;;;;;;5075377;28;20378;-64
2024/03/17 01:23:28;;;;;;;2.33;1.90;;;;;;;;;;5076236;28;20029;-64
2024/03/17 01:25:53;;;;;;;2.97;1.88;;;;;;;;;;5076499;28;20028;-64
2024/03/17 01:28:18;;;;;;;3.42;2.25;;;;;;;;;;5076463;28;20060;-64
2024/03/17 01:30:44;;;;;;;2.63;1.75;;;;;;;;;;5074944;28;20028;-64
2024/03/17 01:33:10;;;;;;;2.35;2.00;;;;;;;;;;5074822;28;20530;-64
2024/03/17 01:35:35;;;;;;;2.67;1.95;;;;;;;;;;5076022;28;20059;-64
2024/03/17 01:38:01;;;;;;;2.33;1.95;;;;;;;;;;5076451;28;20379;-64
2024/03/17 01:40:26;;;;;;;3.28;2.15;;;;;;;;;;5076206;28;20110;-64
2024/03/17 01:42:51;;;;;;;2.35;1.85;;;;;;;;;;5075918;28;20024;-64
2024/03/17 01:45:17;;;;;;;2.83;1.98;;;;;;;;;;5075043;28;20028;-64
2024/03/17 01:47:42;;;;;;;3.20;2.30;;;;;;;;;;5075835;28;20032;-64
2024/03/17 01:50:08;;;;;;;3.13;2.10;;;;;;;;;;5075812;28;20438;-64
2024/03/17 01:52:37;;;;;;;2.15;1.80;;;;;;;;;;5074514;28;20486;-64
2024/03/17 01:55:03;;;;;;;1.77;1.67;;;;;;;;;;5075722;28;20070;-64
2024/03/17 01:57:28;;;;;;;2.90;1.60;;;;;;;;;;5075653;28;20425;-64
2024/03/17 01:59:54;;;;;;;2.80;1.70;;;;;;;;;;5075811;28;20104;-64
2024/03/17 02:02:21;;;;;;;2.38;1.80;;;;;;;;;;5074515;28;20029;-64
2024/03/17 02:04:47;;;;;;;3.58;2.33;;;;;;;;;;5075208;28;20086;-64
2024/03/17 02:07:13;;;;;;;3.90;1.90;;;;;;;;;;5075733;28;20056;-64
2024/03/17 02:09:39;;;;;;;2.45;1.75;;;;;;;;;;5075664;28;20024;-64
2024/03/17 02:12:04;;;;;;;3.10;1.73;;;;;;;;;;5075644;28;20038;-64
2024/03/17 02:14:30;;;;;;;2.38;1.70;;;;;;;;;;5075544;28;20036;-64
2024/03/17 02:16:55;;;;;;;3.00;1.75;;;;;;;;;;5075544;28;20028;-64
2024/03/17 02:19:20;;;;;;;3.42;1.80;;;;;;;;;;5073929;28;20032;-64
2024/03/17 02:21:46;;;;;;;1.90;1.48;;;;;;;;;;5075715;28;20035;-64
2024/03/17 02:24:11;;;;;;;3.28;1.85;;;;;;;;;;5073906;28;20024;-64
2024/03/17 02:26:38;;;;;;;2.95;1.67;;;;;;;;;;5075077;28;20035;-64
2024/03/17 02:29:03;;;;;;;2.10;1.77;;;;;;;;;;5075531;28;20108;-64
2024/03/17 02:31:28;;;;;;;2.92;1.58;;;;;;;;;;5074040;28;20059;-64
2024/03/17 02:33:54;;;;;;;2.38;1.95;;;;;;;;;;5074906;28;20381;-64
2024/03/17 02:36:19;;;;;;;3.10;1.90;;;;;;;;;;5076984;28;20045;-64
2024/03/17 02:41:29;;;;;;;2.92;1.60;;;;;;;;;;5075315;28;20028;-64
2024/03/17 02:43:54;;;;;;;4.18;2.03;;;;;;;;;;5074943;28;20032;-64
2024/03/17 02:46:27;;;;;;;3.70;1.80;;;;;;;;;;5073692;28;20028;-64
2024/03/17 02:48:53;;;;;;;4.20;1.92;;;;;;;;;;5075169;28;20536;-64
2024/03/17 02:51:20;;;;;;;3.42;2.10;;;;;;;;;;5074540;28;20021;-64
2024/03/17 02:53:46;;;;;;;3.85;2.05;;;;;;;;;;5075074;28;20515;-64
2024/03/17 02:56:11;;;;;;;3.08;1.95;;;;;;;;;;5074764;28;20037;-64
2024/03/17 02:58:37;;;;;;;2.47;1.80;;;;;;;;;;5074354;28;20098;-64
2024/03/17 03:01:04;;;;;;;3.55;2.08;;;;;;;;;;5074381;28;20028;-64
2024/03/17 03:03:30;;;;;;;4.30;2.15;;;;;;;;;;5074611;28;20067;-64
2024/03/17 03:05:56;;;;;;;5.25;2.05;;;;;;;;;;5074530;28;20029;-64
2024/03/17 03:08:23;;;;;;;2.67;1.83;;;;;;;;;;5074214;28;20032;-64
2024/03/17 03:10:48;;;;;;;2.60;2.03;;;;;;;;;;5074768;28;20028;-64
2024/03/17 03:13:14;;;;;;;3.22;2.00;;;;;;;;;;5074160;28;20021;-64
2024/03/17 03:15:39;;;;;;;3.55;2.20;;;;;;;;;;5073586;28;20055;-64
2024/03/17 03:18:05;;;;;;;3.05;2.40;;;;;;;;;;5074532;28;20550;-64
2024/03/17 03:20:30;;;;;;;2.47;1.85;;;;;;;;;;5072796;28;20491;-64
2024/03/17 03:22:56;;;;;;;3.63;2.20;;;;;;;;;;5074041;28;20368;-64
2024/03/17 03:25:22;;;;;;;2.60;1.85;;;;;;;;;;5074252;28;20064;-64
2024/03/17 03:27:47;;;;;;;5.07;2.30;;;;;;;;;;5072691;28;20013;-64
2024/03/17 03:30:15;;;;;;;2.90;2.03;;;;;;;;;;5073886;28;20038;-64
2024/03/17 03:32:40;;;;;;;5.60;2.13;;;;;;;;;;5074452;28;20175;-64
2024/03/17 03:35:06;;;;;;;2.25;1.95;;;;;;;;;;5072520;28;20072;-64
2024/03/17 03:37:32;;;;;;;2.72;2.35;;;;;;;;;;5073754;28;20044;-64
2024/03/17 03:39:58;;;;;;;2.80;1.85;;;;;;;;;;5073811;28;20033;-64
2024/03/17 03:42:24;;;;;;;1.88;1.52;;;;;;;;;;5073748;28;20032;-64
2024/03/17 03:44:49;;;;;;;2.85;1.73;;;;;;;;;;5074036;28;20383;-64
2024/03/17 03:47:15;;;;;;;2.33;2.13;;;;;;;;;;5074013;28;20024;-64
2024/03/17 03:49:41;;;;;;;2.72;1.85;;;;;;;;;;5073709;28;20024;-64
2024/03/17 03:52:07;;;;;;;3.00;1.70;;;;;;;;;;5074212;28;20033;-64
2024/03/17 03:54:33;;;;;;;2.33;2.00;;;;;;;;;;5073641;28;20470;-65
2024/03/17 03:56:58;;;;;;;2.28;1.92;;;;;;;;;;5073624;28;20104;-65
2024/03/17 03:59:24;;;;;;;3.20;1.85;;;;;;;;;;5073535;28;20560;-65
2024/03/17 04:01:49;;;;;;;2.95;2.33;;;;;;;;;;5072323;28;20036;-64
2024/03/17 04:04:15;;;;;;;3.67;2.13;;;;;;;;;;5073094;28;20059;-64
2024/03/17 04:06:40;;;;;;;4.45;2.08;;;;;;;;;;5073530;28;20054;-64
2024/03/17 04:09:05;;;;;;;3.78;1.88;;;;;;;;;;5073473;28;20028;-64
2024/03/17 04:11:32;;;;;;;4.32;1.90;;;;;;;;;;5073497;28;20111;-64
2024/03/17 04:14:00;;;;;;;4.75;1.92;;;;;;;;;;5073792;28;20028;-64
2024/03/17 04:16:25;;;;;;;3.53;1.48;;;;;;;;;;5072820;28;20029;-64
2024/03/17 04:18:51;;;;;;;3.08;1.63;;;;;;;;;;5073573;28;20028;-64
2024/03/17 04:21:16;;;;;;;4.13;1.83;;;;;;;;;;5073383;28;20070;-64
2024/03/17 04:23:41;;;;;;;3.00;2.05;;;;;;;;;;5073647;28;20017;-64
2024/03/17 04:26:07;;;;;;;3.08;1.67;;;;;;;;;;5073612;28;20104;-64
2024/03/17 04:28:33;;;;;;;2.65;1.83;;;;;;;;;;5076936;28;20477;-64
2024/03/17 04:31:05;;;;;;;2.00;1.75;;;;;;;;;;5077299;28;20021;-64
2024/03/17 04:33:31;;;;;;;4.47;2.03;;;;;;;;;;5077249;28;20127;-64
2024/03/17 04:35:57;;;;;;;3.70;1.67;;;;;;;;;;5077184;28;20071;-64
2024/03/17 04:38:22;;;;;;;3.92;1.92;;;;;;;;;;5077033;28;20032;-64
2024/03/17 04:40:48;;;;;;;4.20;1.80;;;;;;;;;;5077672;28;20051;-64
2024/03/17 04:43:14;;;;;;;3.80;1.88;;;;;;;;;;5077308;28;20104;-64
2024/03/17 04:45:39;;;;;;;2.63;1.60;;;;;;;;;;5077281;28;20059;-64
2024/03/17 04:48:05;;;;;;;3.20;1.98;;;;;;;;;;5076919;28;20028;-64
2024/03/17 04:53:20;;;;;;;4.38;2.22;;;;;;;;;;5096186;22;20044;-59
2024/03/17 04:55:45;;;;;;;3.25;1.85;;;;;;;;;;5077102;28;20063;-58
2024/03/17 04:58:11;;;;;;;3.97;2.15;;;;;;;;;;5076627;28;20033;-59
2024/03/17 05:00:36;;;;;;;3.17;2.03;;;;;;;;;;5075507;28;20028;-59
2024/03/17 05:03:03;;;;;;;1.90;1.40;;;;;;;;;;5077192;28;20021;-59
2024/03/17 05:05:29;;;;;;;3.90;2.30;;;;;;;;;;5058708;28;20047;-59
2024/03/17 05:07:54;;;;;;;5.80;2.28;;;;;;;;;;5076563;28;20462;-59
2024/03/17 05:10:20;;;;;;;3.47;2.13;;;;;;;;;;5076803;28;20390;-59
2024/03/17 05:12:46;;;;;;;2.92;1.92;;;;;;;;;;5076486;28;20024;-59
2024/03/17 05:15:11;;;;;;;4.47;1.70;;;;;;;;;;5074730;28;20509;-59
2024/03/17 05:17:36;;;;;;;3.78;1.80;;;;;;;;;;5076317;28;20032;-59
2024/03/17 05:20:02;;;;;;;3.83;2.00;;;;;;;;;;5076826;28;20107;-59
2024/03/17 05:22:28;;;;;;;3.65;2.13;;;;;;;;;;5076160;28;20028;-59
2024/03/17 05:24:53;;;;;;;3.38;2.00;;;;;;;;;;5075939;28;20474;-59
2024/03/17 05:27:19;;;;;;;4.85;1.95;;;;;;;;;;5076797;28;20447;-59
2024/03/17 05:29:44;;;;;;;4.93;2.20;;;;;;;;;;5076497;28;20027;-59
2024/03/17 05:32:09;;;;;;;3.22;2.05;;;;;;;;;;5076149;28;20029;-59
2024/03/17 05:34:35;;;;;;;2.80;1.67;;;;;;;;;;5076315;28;20089;-59
2024/03/17 05:37:01;;;;;;;2.03;1.60;;;;;;;;;;5076586;28;20035;-59
2024/03/17 05:39:27;;;;;;;3.10;1.50;;;;;;;;;;5073768;28;20107;-59
2024/03/17 05:41:52;;;;;;;2.38;1.60;;;;;;;;;;5075917;28;20423;-59
2024/03/17 05:44:18;;;;;;;2.50;1.73;;;;;;;;;;5076459;28;20162;-59
2024/03/17 05:46:43;;;;;;;2.17;1.33;;;;;;;;;;5076398;28;20030;-59
2024/03/17 05:49:10;;;;;;;5.43;1.77;;;;;;;;;;5075803;28;20066;-59
2024/03/17 05:51:35;;;;;;;3.95;1.50;;;;;;;;;;5076334;28;20037;-59
2024/03/17 05:54:01;;;;;;;3.25;1.17;;;;;;;;;;5077636;28;20052;-59
2024/03/17 05:56:26;;;;;;;3.05;1.65;;;;;;;;;;5075894;28;20032;-59
2024/03/17 05:58:51;;;;;;;3.50;1.35;;;;;;;;;;5075545;28;20111;-59
2024/03/17 06:01:17;;;;;;;3.20;1.73;;;;;;;;;;5075914;28;20020;-59
2024/03/17 06:03:42;;;;;;;2.45;1.70;;;;;;;;;;5074948;28;20050;-59
2024/03/17 06:06:09;;;;;;;4.30;1.60;;;;;;;;;;5075481;28;20477;-59
2024/03/17 06:08:36;;;;;;;3.15;1.70;;;;;;;;;;5075429;28;20056;-59
2024/03/17 06:11:02;;;;;;;3.60;1.88;;;;;;;;;;5074657;28;20108;-59
2024/03/17 06:13:28;;;;;;;5.28;1.83;;;;;;;;;;5075201;28;20465;-59
2024/03/17 06:15:53;;;;;;;5.47;2.35;;;;;;;;;;5075328;28;20031;-59
2024/03/17 06:18:19;;;;;;;4.65;1.65;;;;;;;;;;5075168;28;20081;-59
2024/03/17 06:20:45;;;;;;;3.42;1.60;;;;;;;;;;5075783;28;20032;-59
2024/03/17 06:23:11;;;;;;;4.32;1.63;;;;;;;;;;5075185;28;20021;-59
2024/03/17 06:25:43;;;;;;;2.38;1.40;;;;;;;;;;5073878;28;20039;-59
2024/03/17 06:28:13;;;;;;;3.55;1.67;;;;;;;;;;5075358;28;20035;-59
2024/03/17 06:30:42;;;;;;;4.33;1.60;;;;;;;;;;5075340;28;20032;-59
2024/03/17 06:33:12;;;;;;;2.65;1.38;;;;;;;;;;5073647;28;20565;-59
2024/03/17 06:35:37;;;;;;;3.47;1.67;;;;;;;;;;5075281;28;20029;-59
2024/03/17 06:38:03;;;;;;;4.97;1.75;;;;;;;;;;5075074;28;20364;-59
2024/03/17 06:40:28;;;;;;;5.03;1.75;;;;;;;;;;5056893;28;20370;-59
2024/03/17 06:42:54;;;;;;;3.47;1.45;;;;;;;;;;5073490;28;20028;-59
2024/03/17 06:45:22;;;;;;;3.88;1.65;;;;;;;;;;5074988;28;20021;-59
2024/03/17 06:47:58;;;;;;;5.45;1.95;;;;;;;;;;5074915;28;20028;-59
2024/03/17 06:50:24;;;;;;;2.42;1.63;;;;;;;;;;5075067;28;20037;-59
2024/03/17 06:52:49;;;;;;;2.25;1.60;;;;;;;;;;5074551;28;20119;-59
2024/03/17 06:55:14;;;;;;;5.07;2.22;;;;;;;;;;5074568;28;20043;-59
2024/03/17 06:57:46;;;;;;;3.60;1.83;;;;;;;;;;5074735;28;20059;-59
2024/03/17 07:00:14;;;;;;;1.63;1.08;;;;;;;;;;5085880;22;20064;-64
2024/03/17 07:02:43;;;;;;;1.60;1.23;;;;;;;;;;5089633;22;20053;-64
2024/03/17 07:11:02;;;;;;;5.47;2.00;;;;;;;;;;5052925;28;20194;-58
2024/03/17 07:13:38;;;;;;;3.75;1.55;;;;;;;;;;5036266;28;20036;-58
2024/03/17 07:16:07;;;;;;;2.60;1.13;;;;;;;;;;5054436;28;20356;-58
2024/03/17 07:18:33;;;;;;;4.88;2.10;;;;;;;;;;5054336;28;20017;-58
2024/03/17 07:20:59;;;;;;;1.85;1.15;;;;;;;;;;5054926;28;20151;-57
2024/03/17 07:23:25;;;;;;;2.75;1.42;;;;;;;;;;5054325;28;20025;-58
2024/03/17 07:25:57;;;;;;;2.38;1.45;;;;;;;;;;5054323;28;20122;-58
2024/03/17 07:28:23;;;;;;;5.43;1.90;;;;;;;;;;5036467;28;20029;-57
2024/03/17 07:30:53;;;;;;;0.85;0.65;;;;;;;;;;5054487;28;20152;-58
2024/03/17 07:33:20;;;;;;;3.17;1.52;;;;;;;;;;5054167;28;20028;-57
2024/03/17 07:35:51;;;;;;;3.20;1.63;;;;;;;;;;5053862;28;20044;-57
2024/03/17 07:38:16;;;;;;;6.40;1.80;;;;;;;;;;5054313;28;20103;-58
2024/03/17 07:40:42;;;;;;;3.05;1.38;;;;;;;;;;5035891;28;20025;-58
2024/03/17 07:43:07;;;;;;;2.90;1.38;;;;;;;;;;5036262;28;20494;-57
2024/03/17 07:45:33;;;;;;;3.25;1.75;;;;;;;;;;5019412;28;20025;-57
2024/03/17 07:47:58;;;;;;;3.00;1.80;;;;;;;;;;5054459;28;20414;-57
2024/03/17 07:50:24;;;;;;;3.85;1.80;;;;;;;;;;5053666;28;20075;-57
2024/03/17 07:52:49;;;;;;;2.70;1.70;;;;;;;;;;5054091;28;20028;-57
2024/03/17 07:55:14;;;;;;;4.00;1.83;;;;;;;;;;5053615;28;20103;-57
2024/03/17 07:57:41;;;;;;;6.35;1.73;;;;;;;;;;5053508;28;20093;-57
2024/03/17 08:00:15;;;;;;;3.85;1.83;;;;;;;;;;5053994;28;20044;-57
2024/03/17 08:02:47;;;;;;;4.63;1.65;;;;;;;;;;5053220;28;20029;-57
2024/03/17 08:05:13;;;;;;;3.67;1.48;;;;;;;;;;5053756;28;20025;-57
2024/03/17 08:07:39;;;;;;;2.83;1.77;;;;;;;;;;5053454;28;20024;-57
2024/03/17 08:10:05;;;;;;;4.88;2.15;;;;;;;;;;5053422;28;20590;-57
2024/03/17 08:12:31;;;;;;;5.32;1.98;;;;;;;;;;5053701;28;20061;-57
2024/03/17 08:14:56;;;;;;;3.20;1.10;;;;;;;;;;5019388;28;20063;-57
2024/03/17 08:17:22;;;;;;;2.22;1.38;;;;;;;;;;5053369;28;20033;-58
2024/03/17 08:19:47;;;;;;;4.63;1.63;;;;;;;;;;5035461;28;20064;-57
2024/03/17 08:22:13;;;;;;;3.75;1.92;;;;;;;;;;5053328;28;20036;-57
2024/03/17 08:24:38;;;;;;;4.75;1.90;;;;;;;;;;5053312;28;20029;-57
2024/03/17 08:27:04;;;;;;;1.80;1.10;;;;;;;;;;5035449;28;20021;-57
2024/03/17 08:29:29;;;;;;;0.98;0.73;;;;;;;;;;5035464;28;20035;-57
2024/03/17 08:31:55;;;;;;;4.63;1.30;;;;;;;;;;5053228;28;20211;-57
2024/03/17 08:34:20;;;;;;;3.42;1.10;;;;;;;;;;5018899;28;20525;-57
2024/03/17 08:36:45;;;;;;;3.53;1.20;;;;;;;;;;5053175;28;20036;-57
2024/03/17 08:39:11;;;;;;;4.38;1.48;;;;;;;;;;5053105;28;20029;-57
2024/03/17 08:41:36;;;;;;;4.65;1.38;;;;;;;;;;5053449;28;20376;-57
2024/03/17 08:44:02;;;;;;;3.90;1.70;;;;;;;;;;5053098;28;20488;-57
2024/03/17 08:46:27;;;;;;;2.50;0.98;;;;;;;;;;5035369;28;20391;-57
2024/03/17 08:48:53;;;;;;;2.80;1.10;;;;;;;;;;5053343;28;20114;-58
2024/03/17 08:51:18;;;;;;;2.10;0.93;;;;;;;;;;5052989;28;20025;-58
2024/03/17 08:53:43;;;;;;;3.40;1.00;;;;;;;;;;5052938;28;20040;-57
2024/03/17 08:56:09;;;;;;;2.25;0.75;;;;;;;;;;5053277;28;20104;-57
2024/03/17 08:58:35;;;;;;;3.10;1.05;;;;;;;;;;5053491;28;20055;-57
2024/03/17 09:01:05;;;;;;;2.67;1.02;;;;;;;;;;5052968;28;20057;-57
2024/03/17 09:03:30;;;;;;;3.13;0.90;;;;;;;;;;5053477;28;20444;-57
2024/03/17 09:05:56;;;;;;;1.67;0.90;;;;;;;;;;5052983;28;20075;-57
2024/03/17 09:08:28;;;;;;;3.00;1.20;;;;;;;;;;5053152;28;20052;-58
2024/03/17 09:10:54;;;;;;;5.63;1.27;;;;;;;;;;5034891;28;20103;-57
2024/03/17 09:13:20;;;;;;;1.95;0.95;;;;;;;;;;5035393;28;20078;-57
2024/03/17 09:15:52;;;;;;;1.50;0.90;;;;;;;;;;5056475;28;20078;-57
2024/03/17 09:18:18;;;;;;;2.72;1.15;;;;;;;;;;5056658;28;20439;-57
2024/03/17 09:20:44;;;;;;;3.17;1.35;;;;;;;;;;5038607;28;20112;-57
2024/03/17 09:23:09;;;;;;;3.45;1.13;;;;;;;;;;5038576;28;20028;-57
2024/03/17 09:25:35;;;;;;;3.63;1.35;;;;;;;;;;5038757;28;20029;-57
2024/03/17 09:28:00;;;;;;;1.67;1.00;;;;;;;;;;5038361;28;20021;-57
2024/03/17 09:30:27;;;;;;;3.03;1.10;;;;;;;;;;5038328;28;20536;-57
2024/03/17 09:32:52;;;;;;;1.77;0.80;;;;;;;;;;5038240;28;20410;-57
2024/03/17 09:35:18;;;;;;;3.13;0.93;;;;;;;;;;5056089;28;20033;-57
2024/03/17 09:37:43;;;;;;;2.42;1.17;;;;;;;;;;5056041;28;20485;-57
2024/03/17 09:40:17;;;;;;;2.20;1.08;;;;;;;;;;5056170;28;20126;-57
2024/03/17 09:42:43;;;;;;;3.10;1.23;;;;;;;;;;5056535;28;20079;-58
2024/03/17 09:45:12;;;;;;;2.40;1.10;;;;;;;;;;5055911;28;20377;-57
2024/03/17 09:47:39;;;;;;;1.53;1.07;;;;;;;;;;5022130;28;20041;-57
2024/03/17 09:50:04;;;;;;;2.28;1.10;;;;;;;;;;5055827;28;20045;-58
2024/03/17 09:52:31;;;;;;;2.03;1.08;;;;;;;;;;5055991;28;20087;-58
2024/03/17 09:55:09;;;;;;;1.63;0.90;;;;;;;;;;5037977;28;20037;-58
2024/03/17 09:57:35;;;;;;;0.95;0.60;;;;;;;;;;5056222;28;20033;-58
2024/03/17 10:00:04;;;;;;;3.75;1.38;;;;;;;;;;5055833;28;20036;-58
2024/03/17 10:02:30;;;;;;;1.50;1.10;;;;;;;;;;5021317;28;20029;-58
2024/03/17 10:04:55;;;;;;;1.17;1.08;;;;;;;;;;5055838;28;20040;-58
2024/03/17 10:07:37;;;;;;;1.50;1.40;;;;;;;;;;5055722;28;20044;-58
2024/03/17 10:10:12;;;;;;;5.88;1.60;;;;;;;;;;5055465;28;20045;-58
2024/03/17 10:12:38;;;;;;;2.55;1.27;;;;;;;;;;5055631;28;20040;-58
2024/03/17 10:15:04;;;;;;;1.98;0.98;;;;;;;;;;5055614;28;20367;-58
2024/03/17 10:17:31;;;;;;;2.75;1.42;;;;;;;;;;5055293;28;20029;-58
2024/03/17 10:20:23;;;;;;;2.45;1.27;;;;;;;;;;5037290;28;20399;-58
2024/03/17 10:23:05;;;;;;;1.38;1.05;;;;;;;;;;5051381;28;20079;-58
2024/03/17 10:25:31;;;;;;;2.28;1.20;;;;;;;;;;5055265;28;20035;-58
2024/03/17 10:27:57;;;;;;;2.80;1.02;;;;;;;;;;5037240;28;20029;-58
2024/03/17 10:30:24;;;;;;;1.17;1.02;;;;;;;;;;5055327;28;20031;-58
2024/03/17 10:32:54;;;;;;;2.10;1.23;;;;;;;;;;5054969;28;20028;-58
2024/03/17 10:35:48;;;;;;;1.05;0.93;;;;;;;;;;5055264;28;20033;-58
2024/03/17 10:38:14;;;;;;;2.78;1.27;;;;;;;;;;5024372;28;20056;-58
2024/03/17 10:40:40;;;;;;;1.70;1.17;;;;;;;;;;5054803;28;20029;-58
2024/03/17 10:43:06;;;;;;;2.22;1.35;;;;;;;;;;5054802;28;20100;-58
2024/03/17 10:45:38;;;;;;;2.38;1.30;;;;;;;;;;5036983;28;20028;-58
2024/03/17 10:48:08;;;;;;;1.90;1.02;;;;;;;;;;5055256;28;20033;-58
2024/03/17 10:50:36;;;;;;;3.22;1.20;;;;;;;;;;5054939;28;20025;-58
2024/03/17 10:53:03;;;;;;;1.92;1.10;;;;;;;;;;5054605;28;20025;-58
2024/03/17 10:55:31;;;;;;;5.40;1.27;;;;;;;;;;5055094;28;20041;-58
2024/03/17 10:57:57;;;;;;;3.38;1.38;;;;;;;;;;5054777;28;20036;-58
2024/03/17 11:00:24;;;;;;;2.50;1.02;;;;;;;;;;5054407;28;20025;-58
2024/03/17 11:02:55;;;;;;;1.10;0.88;;;;;;;;;;5054677;28;20025;-58
2024/03/17 11:05:24;;;;;;;3.60;1.20;;;;;;;;;;5054678;28;20074;-58
2024/03/17 11:07:51;;;;;;;3.38;1.10;;;;;;;;;;5054618;28;20036;-58
2024/03/17 11:10:27;;;;;;;2.47;1.30;;;;;;;;;;5054315;28;20131;-58
2024/03/17 11:12:56;;;;;;;2.30;1.13;;;;;;;;;;5054507;28;20025;-58
2024/03/17 11:15:33;;;;;;;1.42;1.08;;;;;;;;;;5054485;28;20021;-57
2024/03/17 11:18:09;;;;;;;3.78;1.48;;;;;;;;;;5054425;28;20044;-58
2024/03/17 11:20:37;;;;;;;2.60;1.08;;;;;;;;;;5054303;28;20086;-58
2024/03/17 11:23:03;;;;;;;4.00;1.20;;;;;;;;;;5036188;28;20024;-57
2024/03/17 11:25:30;;;;;;;1.27;0.88;;;;;;;;;;5054561;28;20041;-58
2024/03/17 11:27:59;;;;;;;1.83;1.13;;;;;;;;;;5054252;28;20025;-58
2024/03/17 11:31:08;;;;;;;2.65;1.25;;;;;;;;;;5053884;28;20044;-57
2024/03/17 11:33:35;;;;;;;2.25;1.20;;;;;;;;;;5053467;28;20045;-57
2024/03/17 11:36:19;;;;;;;3.55;1.42;;;;;;;;;;5054181;28;20041;-58
2024/03/17 11:38:51;;;;;;;2.20;1.05;;;;;;;;;;5053821;28;20176;-58
2024/03/17 11:41:32;;;;;;;5.50;1.25;;;;;;;;;;5054075;28;20029;-58
2024/03/17 11:44:18;;;;;;;2.20;1.08;;;;;;;;;;5053998;28;20104;-58
2024/03/17 11:46:44;;;;;;;2.40;1.13;;;;;;;;;;5053728;28;20033;-58
2024/03/17 11:49:22;;;;;;;2.10;1.20;;;;;;;;;;5036179;28;20093;-58
2024/03/17 11:51:48;;;;;;;1.70;1.00;;;;;;;;;;5036433;28;20037;-58
2024/03/17 11:54:18;;;;;;;2.72;1.45;;;;;;;;;;5054195;28;20083;-58
2024/03/17 11:56:53;;;;;;;2.95;1.48;;;;;;;;;;5053877;28;20028;-58
2024/03/17 11:59:19;;;;;;;3.70;1.35;;;;;;;;;;5053815;28;20037;-58
2024/03/17 12:01:48;;;;;;;3.05;1.10;;;;;;;;;;5053778;28;20029;-58
2024/03/17 12:04:14;;;;;;;2.65;1.30;;;;;;;;;;5035608;28;20036;-58
2024/03/17 12:06:43;;;;;;;2.97;1.23;;;;;;;;;;5054052;28;20032;-58
2024/03/17 12:09:20;;;;;;;2.03;1.23;;;;;;;;;;5053279;28;20033;-58
2024/03/17 12:11:50;;;;;;;4.03;1.42;;;;;;;;;;5053455;28;20053;-58
2024/03/17 12:14:16;;;;;;;2.72;1.25;;;;;;;;;;5053477;28;20033;-58
2024/03/17 12:16:54;;;;;;;3.28;1.23;;;;;;;;;;5053656;28;20036;-58
2024/03/17 12:19:19;;;;;;;2.88;1.20;;;;;;;;;;5053578;28;20037;-58
2024/03/17 12:21:45;;;;;;;4.22;1.38;;;;;;;;;;5053340;28;20032;-58
2024/03/17 12:24:15;;;;;;;2.60;1.05;;;;;;;;;;5035496;28;20017;-58
2024/03/17 12:26:40;;;;;;;5.03;1.27;;;;;;;;;;5053580;28;20037;-58
2024/03/17 12:29:21;;;;;;;3.08;1.17;;;;;;;;;;5053560;28;20032;-58
2024/03/17 12:31:46;;;;;;;3.03;1.52;;;;;;;;;;5035384;28;20483;-58
2024/03/17 12:34:12;;;;;;;3.53;1.23;;;;;;;;;;5053220;28;20040;-58
2024/03/17 12:36:38;;;;;;;3.53;1.30;;;;;;;;;;5053214;28;20025;-58
2024/03/17 12:39:11;;;;;;;4.38;1.00;;;;;;;;;;5035664;28;20040;-58
2024/03/17 12:41:37;;;;;;;2.67;1.02;;;;;;;;;;5035753;28;20039;-58
2024/03/17 12:44:03;;;;;;;6.63;1.38;;;;;;;;;;5053136;28;20101;-58
2024/03/17 12:46:28;;;;;;;1.92;1.20;;;;;;;;;;5053651;28;20064;-58
2024/03/17 12:49:00;;;;;;;2.95;1.50;;;;;;;;;;5055297;28;20025;-58
2024/03/17 12:51:26;;;;;;;2.45;1.20;;;;;;;;;;5056955;28;20044;-58
2024/03/17 12:54:11;;;;;;;1.40;1.00;;;;;;;;;;5057417;28;20029;-58
2024/03/17 13:02:15;;;;;;;4.45;1.00;;;;;;;;;;5057295;28;20055;-58
2024/03/17 13:04:40;;;;;;;3.35;1.17;;;;;;;;;;5057197;28;20374;-58
2024/03/17 13:07:09;;;;;;;1.77;0.85;;;;;;;;;;5038855;28;20029;-58
2024/03/17 13:09:35;;;;;;;3.90;1.25;;;;;;;;;;5056469;28;20364;-58
2024/03/17 13:12:00;;;;;;;2.38;1.17;;;;;;;;;;5056562;28;20120;-58
2024/03/17 13:14:25;;;;;;;4.95;1.73;;;;;;;;;;5056750;28;20485;-58
2024/03/17 13:16:51;;;;;;;2.67;1.45;;;;;;;;;;5038575;28;20033;-58
2024/03/17 13:19:16;;;;;;;3.95;1.27;;;;;;;;;;5038434;28;20120;-57
2024/03/17 13:21:41;;;;;;;2.38;1.15;;;;;;;;;;5056340;28;20029;-57
2024/03/17 13:24:08;;;;;;;3.67;1.50;;;;;;;;;;5056290;28;20029;-57
2024/03/17 13:26:39;;;;;;;4.88;1.27;;;;;;;;;;5038448;28;20070;-57
2024/03/17 13:29:04;;;;;;;2.20;1.20;;;;;;;;;;5056471;28;20035;-58
2024/03/17 13:31:30;;;;;;;5.88;1.65;;;;;;;;;;5056166;28;20378;-57
2024/03/17 13:33:55;;;;;;;1.88;1.15;;;;;;;;;;5056094;28;20032;-57
2024/03/17 13:36:20;;;;;;;2.33;1.20;;;;;;;;;;5056379;28;20067;-58
2024/03/17 13:38:46;;;;;;;2.33;1.30;;;;;;;;;;5055978;28;20383;-58
2024/03/17 13:41:11;;;;;;;3.53;1.45;;;;;;;;;;5055995;28;20052;-57
2024/03/17 13:43:37;;;;;;;3.17;1.50;;;;;;;;;;5056247;28;20029;-57
2024/03/17 13:46:03;;;;;;;3.05;1.48;;;;;;;;;;5055902;28;20426;-57
2024/03/17 13:48:29;;;;;;;2.30;1.35;;;;;;;;;;5055838;28;20074;-58
2024/03/17 13:50:54;;;;;;;1.95;1.02;;;;;;;;;;5056097;28;20108;-57
2024/03/17 13:53:20;;;;;;;2.63;1.02;;;;;;;;;;5055750;28;20387;-57
2024/03/17 13:55:46;;;;;;;3.70;1.38;;;;;;;;;;5055723;28;20392;-58
2024/03/17 13:58:12;;;;;;;4.00;1.20;;;;;;;;;;5038195;28;20090;-58
2024/03/17 14:00:39;;;;;;;2.70;1.23;;;;;;;;;;5054775;28;20518;-58
2024/03/17 14:03:05;;;;;;;4.95;1.70;;;;;;;;;;5037821;28;20029;-57
2024/03/17 14:05:32;;;;;;;2.53;1.50;;;;;;;;;;5055803;28;20044;-58
2024/03/17 14:07:58;;;;;;;3.08;1.75;;;;;;;;;;5056074;28;20209;-57
2024/03/17 14:10:25;;;;;;;2.53;1.48;;;;;;;;;;5037587;28;20410;-58
2024/03/17 14:12:50;;;;;;;3.00;1.38;;;;;;;;;;5055435;28;20024;-57
2024/03/17 14:15:16;;;;;;;4.75;1.80;;;;;;;;;;5055345;28;20025;-57
2024/03/17 14:17:43;;;;;;;3.42;1.60;;;;;;;;;;5055889;28;20035;-57
2024/03/17 14:20:09;;;;;;;3.70;2.00;;;;;;;;;;5055186;28;20040;-57
2024/03/17 14:22:38;;;;;;;4.60;2.22;;;;;;;;;;5055825;28;20021;-57
2024/03/17 14:25:05;;;;;;;3.83;1.90;;;;;;;;;;5037475;28;20025;-58
2024/03/17 14:27:30;;;;;;;3.70;2.00;;;;;;;;;;5055047;28;20123;-58
2024/03/17 14:29:56;;;;;;;3.67;1.58;;;;;;;;;;5054553;28;20035;-58
2024/03/17 14:32:21;;;;;;;5.63;1.73;;;;;;;;;;5055481;28;20383;-58
2024/03/17 14:34:47;;;;;;;2.83;1.55;;;;;;;;;;5055094;28;20040;-58
2024/03/17 14:37:14;;;;;;;3.28;1.25;;;;;;;;;;5037113;28;20017;-58
2024/03/17 14:39:39;;;;;;;5.70;2.33;;;;;;;;;;5055072;28;20041;-58
2024/03/17 14:42:05;;;;;;;2.28;1.30;;;;;;;;;;5055372;28;20371;-58
2024/03/17 14:44:31;;;;;;;2.55;1.30;;;;;;;;;;5055220;28;20387;-58
2024/03/17 14:46:56;;;;;;;3.65;1.05;;;;;;;;;;5054598;28;20025;-58
2024/03/17 14:49:21;;;;;;;3.58;1.33;;;;;;;;;;5054416;28;20518;-58
2024/03/17 14:51:47;;;;;;;3.67;1.27;;;;;;;;;;5036777;28;20079;-59
2024/03/17 14:54:13;;;;;;;3.05;1.30;;;;;;;;;;5054966;28;20025;-59
2024/03/17 14:56:40;;;;;;;1.95;1.20;;;;;;;;;;5054574;28;20036;-59
2024/03/17 14:59:05;;;;;;;2.80;1.38;;;;;;;;;;5054711;28;20385;-59